sensor_id;sensor_type;location;lat;lon;timestamp;P1;durP1;ratioP1;P2;durP2;ratioP2
7193;SDS011;3638;48.820;9.244;2023-02-15T00:01:08;33.27;;;24.30;;
7193;SDS011;3638;48.820;9.244;2023-02-15T00:03:37;33.17;;;22.77;;
7193;SDS011;3638;48.820;9.244;2023-02-15T00:06:04;33.17;;;24.00;;
7193;SDS011;3638;48.820;9.244;2023-02-15T00:08:33;33.37;;;24.87;;
7193;SDS011;3638;48.820;9.244;2023-02-15T00:11:04;35.80;;;23.77;;
7193;SDS011;3638;48.820;9.244;2023-02-15T00:13:32;36.37;;;25.03;;
7193;SDS011;3638;48.820;9.244;2023-02-15T00:16:01;32.20;;;23.17;;
7193;SDS011;3638;48.820;9.244;2023-02-15T00:18:29;31.87;;;22.33;;
7193;SDS011;3638;48.820;9.244;2023-02-15T00:20:56;30.87;;;22.63;;
7193;SDS011;3638;48.820;9.244;2023-02-15T00:23:24;36.10;;;23.73;;
7193;SDS011;3638;48.820;9.244;2023-02-15T00:25:55;32.30;;;23.30;;
7193;SDS011;3638;48.820;9.244;2023-02-15T00:28:30;35.13;;;25.10;;
7193;SDS011;3638;48.820;9.244;2023-02-15T00:31:02;32.70;;;23.80;;
7193;SDS011;3638;48.820;9.244;2023-02-15T00:33:31;32.00;;;23.40;;
7193;SDS011;3638;48.820;9.244;2023-02-15T00:35:58;30.10;;;23.43;;
7193;SDS011;3638;48.820;9.244;2023-02-15T00:38:26;30.10;;;22.97;;
7193;SDS011;3638;48.820;9.244;2023-02-15T00:40:59;34.17;;;24.13;;
7193;SDS011;3638;48.820;9.244;2023-02-15T00:43:29;33.20;;;23.73;;
7193;SDS011;3638;48.820;9.244;2023-02-15T00:45:57;36.43;;;25.00;;
7193;SDS011;3638;48.820;9.244;2023-02-15T00:48:25;39.13;;;26.10;;
7193;SDS011;3638;48.820;9.244;2023-02-15T00:50:53;40.77;;;27.30;;
7193;SDS011;3638;48.820;9.244;2023-02-15T00:53:25;36.07;;;25.50;;
7193;SDS011;3638;48.820;9.244;2023-02-15T00:55:53;39.63;;;26.60;;
7193;SDS011;3638;48.820;9.244;2023-02-15T00:58:21;37.00;;;25.67;;
7193;SDS011;3638;48.820;9.244;2023-02-15T01:00:49;32.97;;;24.50;;
7193;SDS011;3638;48.820;9.244;2023-02-15T01:03:16;35.30;;;25.40;;
7193;SDS011;3638;48.820;9.244;2023-02-15T01:05:45;32.73;;;23.47;;
7193;SDS011;3638;48.820;9.244;2023-02-15T01:08:14;35.30;;;24.23;;
7193;SDS011;3638;48.820;9.244;2023-02-15T01:10:42;31.90;;;23.60;;
7193;SDS011;3638;48.820;9.244;2023-02-15T01:13:12;33.07;;;23.30;;
7193;SDS011;3638;48.820;9.244;2023-02-15T01:15:42;33.90;;;23.93;;
7193;SDS011;3638;48.820;9.244;2023-02-15T01:18:09;32.13;;;23.10;;
7193;SDS011;3638;48.820;9.244;2023-02-15T01:20:38;34.27;;;23.77;;
7193;SDS011;3638;48.820;9.244;2023-02-15T01:23:06;33.10;;;23.70;;
7193;SDS011;3638;48.820;9.244;2023-02-15T01:25:34;31.43;;;21.87;;
7193;SDS011;3638;48.820;9.244;2023-02-15T01:28:02;32.30;;;23.53;;
7193;SDS011;3638;48.820;9.244;2023-02-15T01:30:30;32.80;;;23.17;;
7193;SDS011;3638;48.820;9.244;2023-02-15T01:33:00;30.43;;;22.13;;
7193;SDS011;3638;48.820;9.244;2023-02-15T01:35:27;33.10;;;23.93;;
7193;SDS011;3638;48.820;9.244;2023-02-15T01:37:54;32.83;;;22.43;;
7193;SDS011;3638;48.820;9.244;2023-02-15T01:40:22;30.90;;;22.67;;
7193;SDS011;3638;48.820;9.244;2023-02-15T01:42:50;30.30;;;23.33;;
7193;SDS011;3638;48.820;9.244;2023-02-15T01:45:20;31.07;;;23.63;;
7193;SDS011;3638;48.820;9.244;2023-02-15T01:47:50;34.37;;;23.70;;
7193;SDS011;3638;48.820;9.244;2023-02-15T01:50:25;36.20;;;24.57;;
7193;SDS011;3638;48.820;9.244;2023-02-15T01:52:57;33.77;;;23.30;;
7193;SDS011;3638;48.820;9.244;2023-02-15T01:55:31;30.80;;;23.40;;
7193;SDS011;3638;48.820;9.244;2023-02-15T01:58:02;32.53;;;23.53;;
7193;SDS011;3638;48.820;9.244;2023-02-15T02:00:29;32.37;;;22.63;;
7193;SDS011;3638;48.820;9.244;2023-02-15T02:02:56;29.47;;;22.07;;
7193;SDS011;3638;48.820;9.244;2023-02-15T02:05:25;30.00;;;22.17;;
7193;SDS011;3638;48.820;9.244;2023-02-15T02:07:53;30.43;;;21.60;;
7193;SDS011;3638;48.820;9.244;2023-02-15T02:10:24;33.17;;;22.37;;
7193;SDS011;3638;48.820;9.244;2023-02-15T02:12:54;28.80;;;21.13;;
7193;SDS011;3638;48.820;9.244;2023-02-15T02:15:25;32.13;;;21.53;;
7193;SDS011;3638;48.820;9.244;2023-02-15T02:18:08;30.43;;;22.40;;
7193;SDS011;3638;48.820;9.244;2023-02-15T02:20:55;27.73;;;21.57;;
7193;SDS011;3638;48.820;9.244;2023-02-15T02:24:08;29.30;;;22.23;;
7193;SDS011;3638;48.820;9.244;2023-02-15T02:30:24;33.90;;;23.73;;
7193;SDS011;3638;48.820;9.244;2023-02-15T02:33:28;29.73;;;22.30;;
7193;SDS011;3638;48.820;9.244;2023-02-15T02:36:15;29.27;;;22.47;;
7193;SDS011;3638;48.820;9.244;2023-02-15T02:38:52;29.83;;;21.70;;
7193;SDS011;3638;48.820;9.244;2023-02-15T02:41:31;29.83;;;22.27;;
7193;SDS011;3638;48.820;9.244;2023-02-15T02:44:07;28.80;;;20.77;;
7193;SDS011;3638;48.820;9.244;2023-02-15T02:46:44;29.73;;;21.37;;
7193;SDS011;3638;48.820;9.244;2023-02-15T02:49:20;28.53;;;21.70;;
7193;SDS011;3638;48.820;9.244;2023-02-15T02:51:58;27.33;;;21.67;;
7193;SDS011;3638;48.820;9.244;2023-02-15T02:54:26;28.70;;;21.10;;
7193;SDS011;3638;48.820;9.244;2023-02-15T02:56:54;32.03;;;22.60;;
7193;SDS011;3638;48.820;9.244;2023-02-15T02:59:27;30.33;;;22.03;;
7193;SDS011;3638;48.820;9.244;2023-02-15T03:01:57;30.30;;;21.67;;
7193;SDS011;3638;48.820;9.244;2023-02-15T03:04:39;28.23;;;21.17;;
7193;SDS011;3638;48.820;9.244;2023-02-15T03:07:09;29.77;;;22.37;;
7193;SDS011;3638;48.820;9.244;2023-02-15T03:09:43;29.63;;;21.10;;
7193;SDS011;3638;48.820;9.244;2023-02-15T03:12:15;27.83;;;20.97;;
7193;SDS011;3638;48.820;9.244;2023-02-15T03:14:48;27.10;;;20.47;;
7193;SDS011;3638;48.820;9.244;2023-02-15T03:17:19;27.00;;;20.67;;
7193;SDS011;3638;48.820;9.244;2023-02-15T03:19:50;26.60;;;20.57;;
7193;SDS011;3638;48.820;9.244;2023-02-15T03:22:21;28.67;;;20.07;;
7193;SDS011;3638;48.820;9.244;2023-02-15T03:24:55;25.70;;;19.47;;
7193;SDS011;3638;48.820;9.244;2023-02-15T03:27:30;28.17;;;20.50;;
7193;SDS011;3638;48.820;9.244;2023-02-15T03:30:02;28.20;;;19.97;;
7193;SDS011;3638;48.820;9.244;2023-02-15T03:32:31;27.00;;;20.67;;
7193;SDS011;3638;48.820;9.244;2023-02-15T03:35:00;28.53;;;21.13;;
7193;SDS011;3638;48.820;9.244;2023-02-15T03:37:29;26.00;;;19.87;;
7193;SDS011;3638;48.820;9.244;2023-02-15T03:40:03;27.30;;;20.33;;
7193;SDS011;3638;48.820;9.244;2023-02-15T03:42:51;27.27;;;19.77;;
7193;SDS011;3638;48.820;9.244;2023-02-15T03:45:28;31.33;;;20.37;;
7193;SDS011;3638;48.820;9.244;2023-02-15T03:47:57;27.73;;;19.90;;
7193;SDS011;3638;48.820;9.244;2023-02-15T03:50:29;25.57;;;19.03;;
7193;SDS011;3638;48.820;9.244;2023-02-15T03:53:16;28.37;;;19.93;;
7193;SDS011;3638;48.820;9.244;2023-02-15T03:55:46;25.20;;;19.03;;
7193;SDS011;3638;48.820;9.244;2023-02-15T03:58:14;24.37;;;18.90;;
7193;SDS011;3638;48.820;9.244;2023-02-15T04:01:04;23.30;;;17.90;;
7193;SDS011;3638;48.820;9.244;2023-02-15T04:03:55;26.93;;;19.60;;
7193;SDS011;3638;48.820;9.244;2023-02-15T04:06:29;26.47;;;19.67;;
7193;SDS011;3638;48.820;9.244;2023-02-15T04:08:55;27.73;;;20.83;;
7193;SDS011;3638;48.820;9.244;2023-02-15T04:11:40;26.70;;;20.30;;
7193;SDS011;3638;48.820;9.244;2023-02-15T04:14:06;26.43;;;20.00;;
7193;SDS011;3638;48.820;9.244;2023-02-15T04:16:47;27.77;;;20.37;;
7193;SDS011;3638;48.820;9.244;2023-02-15T04:19:14;28.33;;;21.57;;
7193;SDS011;3638;48.820;9.244;2023-02-15T04:22:00;26.77;;;21.30;;
7193;SDS011;3638;48.820;9.244;2023-02-15T04:24:45;23.73;;;19.10;;
7193;SDS011;3638;48.820;9.244;2023-02-15T04:27:29;24.27;;;19.90;;
7193;SDS011;3638;48.820;9.244;2023-02-15T04:29:56;23.23;;;18.23;;
7193;SDS011;3638;48.820;9.244;2023-02-15T04:32:23;21.73;;;17.00;;
7193;SDS011;3638;48.820;9.244;2023-02-15T04:34:50;28.30;;;17.37;;
7193;SDS011;3638;48.820;9.244;2023-02-15T04:37:18;24.33;;;17.30;;
7193;SDS011;3638;48.820;9.244;2023-02-15T04:39:45;47.37;;;19.07;;
7193;SDS011;3638;48.820;9.244;2023-02-15T04:42:12;35.37;;;19.27;;
7193;SDS011;3638;48.820;9.244;2023-02-15T04:44:39;35.37;;;19.37;;
7193;SDS011;3638;48.820;9.244;2023-02-15T04:47:06;62.33;;;21.67;;
7193;SDS011;3638;48.820;9.244;2023-02-15T04:49:32;45.73;;;19.63;;
7193;SDS011;3638;48.820;9.244;2023-02-15T04:51:59;27.50;;;19.87;;
7193;SDS011;3638;48.820;9.244;2023-02-15T04:54:28;24.77;;;19.67;;
7193;SDS011;3638;48.820;9.244;2023-02-15T04:56:54;20.87;;;18.53;;
7193;SDS011;3638;48.820;9.244;2023-02-15T04:59:21;23.60;;;19.77;;
7193;SDS011;3638;48.820;9.244;2023-02-15T05:01:48;22.00;;;18.53;;
7193;SDS011;3638;48.820;9.244;2023-02-15T05:04:15;23.87;;;18.57;;
7193;SDS011;3638;48.820;9.244;2023-02-15T05:06:42;19.83;;;17.40;;
7193;SDS011;3638;48.820;9.244;2023-02-15T05:09:10;21.97;;;19.03;;
7193;SDS011;3638;48.820;9.244;2023-02-15T05:11:38;24.13;;;19.00;;
7193;SDS011;3638;48.820;9.244;2023-02-15T05:14:05;23.70;;;19.83;;
7193;SDS011;3638;48.820;9.244;2023-02-15T05:16:32;23.53;;;20.10;;
7193;SDS011;3638;48.820;9.244;2023-02-15T05:18:59;31.97;;;23.60;;
7193;SDS011;3638;48.820;9.244;2023-02-15T05:21:26;34.93;;;26.33;;
7193;SDS011;3638;48.820;9.244;2023-02-15T05:23:53;66.37;;;34.87;;
7193;SDS011;3638;48.820;9.244;2023-02-15T05:26:21;43.70;;;27.20;;
7193;SDS011;3638;48.820;9.244;2023-02-15T05:29:09;67.53;;;26.70;;
7193;SDS011;3638;48.820;9.244;2023-02-15T05:31:37;38.30;;;24.10;;
7193;SDS011;3638;48.820;9.244;2023-02-15T05:34:04;47.03;;;27.43;;
7193;SDS011;3638;48.820;9.244;2023-02-15T05:36:31;48.57;;;23.63;;
7193;SDS011;3638;48.820;9.244;2023-02-15T05:38:58;24.63;;;19.10;;
7193;SDS011;3638;48.820;9.244;2023-02-15T05:41:25;33.73;;;21.00;;
7193;SDS011;3638;48.820;9.244;2023-02-15T05:43:54;37.43;;;23.00;;
7193;SDS011;3638;48.820;9.244;2023-02-15T05:46:23;24.50;;;20.80;;
7193;SDS011;3638;48.820;9.244;2023-02-15T05:48:49;29.93;;;21.37;;
7193;SDS011;3638;48.820;9.244;2023-02-15T05:51:16;27.30;;;20.13;;
7193;SDS011;3638;48.820;9.244;2023-02-15T05:53:43;25.60;;;20.17;;
7193;SDS011;3638;48.820;9.244;2023-02-15T05:56:10;43.30;;;22.40;;
7193;SDS011;3638;48.820;9.244;2023-02-15T05:58:38;46.67;;;21.93;;
7193;SDS011;3638;48.820;9.244;2023-02-15T06:01:07;29.33;;;21.30;;
7193;SDS011;3638;48.820;9.244;2023-02-15T06:03:36;31.37;;;21.93;;
7193;SDS011;3638;48.820;9.244;2023-02-15T06:06:03;28.53;;;21.03;;
7193;SDS011;3638;48.820;9.244;2023-02-15T06:08:31;32.80;;;21.73;;
7193;SDS011;3638;48.820;9.244;2023-02-15T06:10:58;36.17;;;21.57;;
7193;SDS011;3638;48.820;9.244;2023-02-15T06:13:26;24.50;;;19.33;;
7193;SDS011;3638;48.820;9.244;2023-02-15T06:15:53;37.23;;;20.90;;
7193;SDS011;3638;48.820;9.244;2023-02-15T06:18:20;26.87;;;19.33;;
7193;SDS011;3638;48.820;9.244;2023-02-15T06:20:48;22.63;;;18.33;;
7193;SDS011;3638;48.820;9.244;2023-02-15T06:23:16;69.67;;;23.23;;
7193;SDS011;3638;48.820;9.244;2023-02-15T06:25:43;42.20;;;20.57;;
7193;SDS011;3638;48.820;9.244;2023-02-15T06:28:11;43.43;;;21.50;;
7193;SDS011;3638;48.820;9.244;2023-02-15T06:30:38;23.63;;;19.03;;
7193;SDS011;3638;48.820;9.244;2023-02-15T06:33:05;24.37;;;18.87;;
7193;SDS011;3638;48.820;9.244;2023-02-15T06:35:32;23.27;;;18.03;;
7193;SDS011;3638;48.820;9.244;2023-02-15T06:38:00;35.97;;;20.53;;
7193;SDS011;3638;48.820;9.244;2023-02-15T06:40:27;34.17;;;20.83;;
7193;SDS011;3638;48.820;9.244;2023-02-15T06:42:54;31.70;;;20.40;;
7193;SDS011;3638;48.820;9.244;2023-02-15T06:45:21;28.13;;;19.40;;
7193;SDS011;3638;48.820;9.244;2023-02-15T06:47:48;26.33;;;19.87;;
7193;SDS011;3638;48.820;9.244;2023-02-15T06:50:15;47.90;;;22.27;;
7193;SDS011;3638;48.820;9.244;2023-02-15T06:52:42;51.33;;;20.93;;
7193;SDS011;3638;48.820;9.244;2023-02-15T06:55:10;47.67;;;23.83;;
7193;SDS011;3638;48.820;9.244;2023-02-15T06:57:37;69.07;;;26.63;;
7193;SDS011;3638;48.820;9.244;2023-02-15T07:00:04;47.13;;;24.27;;
7193;SDS011;3638;48.820;9.244;2023-02-15T07:02:33;31.47;;;21.87;;
7193;SDS011;3638;48.820;9.244;2023-02-15T07:05:00;42.97;;;23.77;;
7193;SDS011;3638;48.820;9.244;2023-02-15T07:07:27;81.57;;;25.63;;
7193;SDS011;3638;48.820;9.244;2023-02-15T07:09:54;73.10;;;26.60;;
7193;SDS011;3638;48.820;9.244;2023-02-15T07:12:22;63.87;;;28.47;;
7193;SDS011;3638;48.820;9.244;2023-02-15T07:15:07;51.47;;;27.17;;
7193;SDS011;3638;48.820;9.244;2023-02-15T07:17:35;47.13;;;27.13;;
7193;SDS011;3638;48.820;9.244;2023-02-15T07:20:03;66.50;;;29.60;;
7193;SDS011;3638;48.820;9.244;2023-02-15T07:22:33;38.13;;;26.77;;
7193;SDS011;3638;48.820;9.244;2023-02-15T07:25:01;40.87;;;25.47;;
7193;SDS011;3638;48.820;9.244;2023-02-15T07:27:29;49.17;;;27.20;;
7193;SDS011;3638;48.820;9.244;2023-02-15T07:29:57;47.43;;;28.57;;
7193;SDS011;3638;48.820;9.244;2023-02-15T07:32:25;54.90;;;26.30;;
7193;SDS011;3638;48.820;9.244;2023-02-15T07:34:54;41.20;;;25.33;;
7193;SDS011;3638;48.820;9.244;2023-02-15T07:37:21;43.57;;;25.17;;
7193;SDS011;3638;48.820;9.244;2023-02-15T07:39:48;49.30;;;25.40;;
7193;SDS011;3638;48.820;9.244;2023-02-15T07:42:15;48.50;;;24.67;;
7193;SDS011;3638;48.820;9.244;2023-02-15T07:44:44;41.63;;;24.60;;
7193;SDS011;3638;48.820;9.244;2023-02-15T07:47:11;54.37;;;25.37;;
7193;SDS011;3638;48.820;9.244;2023-02-15T07:49:38;39.67;;;24.20;;
7193;SDS011;3638;48.820;9.244;2023-02-15T07:52:05;29.63;;;21.10;;
7193;SDS011;3638;48.820;9.244;2023-02-15T07:54:32;39.67;;;21.17;;
7193;SDS011;3638;48.820;9.244;2023-02-15T07:57:00;46.63;;;21.27;;
7193;SDS011;3638;48.820;9.244;2023-02-15T07:59:27;26.60;;;19.77;;
7193;SDS011;3638;48.820;9.244;2023-02-15T08:01:55;30.77;;;20.40;;
7193;SDS011;3638;48.820;9.244;2023-02-15T08:04:22;28.57;;;19.97;;
7193;SDS011;3638;48.820;9.244;2023-02-15T08:06:51;40.00;;;21.20;;
7193;SDS011;3638;48.820;9.244;2023-02-15T08:09:19;34.73;;;20.43;;
7193;SDS011;3638;48.820;9.244;2023-02-15T08:11:47;34.73;;;19.57;;
7193;SDS011;3638;48.820;9.244;2023-02-15T08:14:15;39.23;;;21.33;;
7193;SDS011;3638;48.820;9.244;2023-02-15T08:16:44;27.10;;;18.17;;
7193;SDS011;3638;48.820;9.244;2023-02-15T08:19:14;34.67;;;18.00;;
7193;SDS011;3638;48.820;9.244;2023-02-15T08:21:44;51.10;;;18.40;;
7193;SDS011;3638;48.820;9.244;2023-02-15T08:24:13;32.00;;;18.43;;
7193;SDS011;3638;48.820;9.244;2023-02-15T08:26:42;24.80;;;16.87;;
7193;SDS011;3638;48.820;9.244;2023-02-15T08:29:11;20.27;;;16.57;;
7193;SDS011;3638;48.820;9.244;2023-02-15T08:31:39;21.20;;;15.57;;
7193;SDS011;3638;48.820;9.244;2023-02-15T08:34:07;20.60;;;16.33;;
7193;SDS011;3638;48.820;9.244;2023-02-15T08:36:37;21.40;;;15.90;;
7193;SDS011;3638;48.820;9.244;2023-02-15T08:39:04;42.00;;;18.40;;
7193;SDS011;3638;48.820;9.244;2023-02-15T08:41:33;25.30;;;17.23;;
7193;SDS011;3638;48.820;9.244;2023-02-15T08:44:02;46.30;;;19.33;;
7193;SDS011;3638;48.820;9.244;2023-02-15T08:46:32;50.93;;;17.93;;
7193;SDS011;3638;48.820;9.244;2023-02-15T08:49:01;41.10;;;17.07;;
7193;SDS011;3638;48.820;9.244;2023-02-15T08:51:29;24.63;;;17.43;;
7193;SDS011;3638;48.820;9.244;2023-02-15T08:54:00;22.53;;;16.53;;
7193;SDS011;3638;48.820;9.244;2023-02-15T08:56:31;34.17;;;19.07;;
7193;SDS011;3638;48.820;9.244;2023-02-15T08:59:01;56.07;;;21.03;;
7193;SDS011;3638;48.820;9.244;2023-02-15T09:01:30;39.37;;;19.50;;
7193;SDS011;3638;48.820;9.244;2023-02-15T09:04:00;28.70;;;18.43;;
7193;SDS011;3638;48.820;9.244;2023-02-15T09:06:30;29.10;;;17.97;;
7193;SDS011;3638;48.820;9.244;2023-02-15T09:08:57;32.00;;;17.73;;
7193;SDS011;3638;48.820;9.244;2023-02-15T09:11:26;25.00;;;19.13;;
7193;SDS011;3638;48.820;9.244;2023-02-15T09:13:55;20.97;;;16.00;;
7193;SDS011;3638;48.820;9.244;2023-02-15T09:16:25;50.50;;;18.37;;
7193;SDS011;3638;48.820;9.244;2023-02-15T09:18:54;53.30;;;18.80;;
7193;SDS011;3638;48.820;9.244;2023-02-15T09:21:23;26.83;;;17.70;;
7193;SDS011;3638;48.820;9.244;2023-02-15T09:23:55;32.90;;;18.10;;
7193;SDS011;3638;48.820;9.244;2023-02-15T09:26:26;26.33;;;18.50;;
7193;SDS011;3638;48.820;9.244;2023-02-15T09:28:58;39.27;;;18.03;;
7193;SDS011;3638;48.820;9.244;2023-02-15T09:31:28;22.50;;;16.57;;
7193;SDS011;3638;48.820;9.244;2023-02-15T09:33:58;22.37;;;16.10;;
7193;SDS011;3638;48.820;9.244;2023-02-15T09:36:27;23.77;;;17.60;;
7193;SDS011;3638;48.820;9.244;2023-02-15T09:38:57;20.27;;;16.00;;
7193;SDS011;3638;48.820;9.244;2023-02-15T09:44:29;39.20;;;17.40;;
7193;SDS011;3638;48.820;9.244;2023-02-15T09:47:09;22.40;;;17.37;;
7193;SDS011;3638;48.820;9.244;2023-02-15T09:49:44;21.80;;;16.20;;
7193;SDS011;3638;48.820;9.244;2023-02-15T09:52:21;39.83;;;19.67;;
7193;SDS011;3638;48.820;9.244;2023-02-15T09:55:00;32.97;;;20.37;;
7193;SDS011;3638;48.820;9.244;2023-02-15T09:57:41;25.53;;;19.50;;
7193;SDS011;3638;48.820;9.244;2023-02-15T10:00:12;33.10;;;20.13;;
7193;SDS011;3638;48.820;9.244;2023-02-15T10:02:50;34.43;;;21.90;;
7193;SDS011;3638;48.820;9.244;2023-02-15T10:05:26;30.63;;;21.70;;
7193;SDS011;3638;48.820;9.244;2023-02-15T10:08:10;30.23;;;22.20;;
7193;SDS011;3638;48.820;9.244;2023-02-15T10:10:48;33.77;;;23.27;;
7193;SDS011;3638;48.820;9.244;2023-02-15T10:13:24;36.20;;;24.83;;
7193;SDS011;3638;48.820;9.244;2023-02-15T10:15:59;28.20;;;21.07;;
7193;SDS011;3638;48.820;9.244;2023-02-15T10:18:40;28.73;;;21.23;;
7193;SDS011;3638;48.820;9.244;2023-02-15T10:21:17;28.90;;;20.90;;
7193;SDS011;3638;48.820;9.244;2023-02-15T10:23:57;31.00;;;20.50;;
7193;SDS011;3638;48.820;9.244;2023-02-15T10:26:42;29.43;;;20.80;;
7193;SDS011;3638;48.820;9.244;2023-02-15T10:29:15;25.43;;;19.37;;
7193;SDS011;3638;48.820;9.244;2023-02-15T10:31:48;30.57;;;20.43;;
7193;SDS011;3638;48.820;9.244;2023-02-15T10:34:18;25.50;;;19.03;;
7193;SDS011;3638;48.820;9.244;2023-02-15T10:36:53;22.50;;;18.67;;
7193;SDS011;3638;48.820;9.244;2023-02-15T10:39:31;23.93;;;18.97;;
7193;SDS011;3638;48.820;9.244;2023-02-15T10:42:06;24.07;;;18.80;;
7193;SDS011;3638;48.820;9.244;2023-02-15T10:44:45;22.43;;;18.33;;
7193;SDS011;3638;48.820;9.244;2023-02-15T10:50:10;24.97;;;18.67;;
7193;SDS011;3638;48.820;9.244;2023-02-15T10:52:45;26.03;;;19.17;;
7193;SDS011;3638;48.820;9.244;2023-02-15T10:55:21;25.17;;;19.47;;
7193;SDS011;3638;48.820;9.244;2023-02-15T10:57:55;27.60;;;19.97;;
7193;SDS011;3638;48.820;9.244;2023-02-15T11:00:32;25.83;;;19.63;;
7193;SDS011;3638;48.820;9.244;2023-02-15T11:03:12;26.40;;;19.37;;
7193;SDS011;3638;48.820;9.244;2023-02-15T11:05:49;25.17;;;19.00;;
7193;SDS011;3638;48.820;9.244;2023-02-15T11:08:23;24.77;;;19.60;;
7193;SDS011;3638;48.820;9.244;2023-02-15T11:10:51;25.13;;;19.43;;
7193;SDS011;3638;48.820;9.244;2023-02-15T11:13:22;27.67;;;20.43;;
7193;SDS011;3638;48.820;9.244;2023-02-15T11:15:54;25.50;;;20.33;;
7193;SDS011;3638;48.820;9.244;2023-02-15T11:18:25;25.23;;;19.67;;
7193;SDS011;3638;48.820;9.244;2023-02-15T11:20:58;24.80;;;19.50;;
7193;SDS011;3638;48.820;9.244;2023-02-15T11:23:27;25.10;;;19.60;;
7193;SDS011;3638;48.820;9.244;2023-02-15T11:25:56;23.40;;;19.97;;
7193;SDS011;3638;48.820;9.244;2023-02-15T11:28:27;26.73;;;20.13;;
7193;SDS011;3638;48.820;9.244;2023-02-15T11:31:00;28.43;;;19.80;;
7193;SDS011;3638;48.820;9.244;2023-02-15T11:33:36;30.40;;;20.27;;
7193;SDS011;3638;48.820;9.244;2023-02-15T11:36:07;27.40;;;19.80;;
7193;SDS011;3638;48.820;9.244;2023-02-15T11:38:38;29.00;;;20.70;;
7193;SDS011;3638;48.820;9.244;2023-02-15T11:41:09;28.63;;;20.87;;
7193;SDS011;3638;48.820;9.244;2023-02-15T11:43:38;24.87;;;19.60;;
7193;SDS011;3638;48.820;9.244;2023-02-15T11:46:14;28.40;;;20.00;;
7193;SDS011;3638;48.820;9.244;2023-02-15T11:48:41;27.63;;;21.03;;
7193;SDS011;3638;48.820;9.244;2023-02-15T11:51:11;26.40;;;19.97;;
7193;SDS011;3638;48.820;9.244;2023-02-15T11:53:41;26.93;;;20.70;;
7193;SDS011;3638;48.820;9.244;2023-02-15T11:56:12;27.23;;;20.47;;
7193;SDS011;3638;48.820;9.244;2023-02-15T11:58:41;28.90;;;20.83;;
7193;SDS011;3638;48.820;9.244;2023-02-15T12:01:11;26.13;;;20.20;;
7193;SDS011;3638;48.820;9.244;2023-02-15T12:03:48;24.47;;;19.93;;
7193;SDS011;3638;48.820;9.244;2023-02-15T12:06:22;27.10;;;18.80;;
7193;SDS011;3638;48.820;9.244;2023-02-15T12:08:52;26.03;;;20.03;;
7193;SDS011;3638;48.820;9.244;2023-02-15T12:11:29;26.10;;;19.17;;
7193;SDS011;3638;48.820;9.244;2023-02-15T12:14:02;26.33;;;19.10;;
7193;SDS011;3638;48.820;9.244;2023-02-15T12:16:33;23.63;;;18.57;;
7193;SDS011;3638;48.820;9.244;2023-02-15T12:19:12;23.07;;;18.90;;
7193;SDS011;3638;48.820;9.244;2023-02-15T12:21:55;23.67;;;18.67;;
7193;SDS011;3638;48.820;9.244;2023-02-15T12:24:25;29.13;;;19.17;;
7193;SDS011;3638;48.820;9.244;2023-02-15T12:26:58;21.07;;;18.53;;
7193;SDS011;3638;48.820;9.244;2023-02-15T12:29:29;29.07;;;19.70;;
7193;SDS011;3638;48.820;9.244;2023-02-15T12:32:03;27.10;;;20.47;;
7193;SDS011;3638;48.820;9.244;2023-02-15T12:34:31;26.57;;;19.97;;
7193;SDS011;3638;48.820;9.244;2023-02-15T12:37:07;27.67;;;20.70;;
7193;SDS011;3638;48.820;9.244;2023-02-15T12:39:50;30.60;;;21.50;;
7193;SDS011;3638;48.820;9.244;2023-02-15T12:42:19;30.00;;;22.10;;
7193;SDS011;3638;48.820;9.244;2023-02-15T12:44:52;27.07;;;21.20;;
7193;SDS011;3638;48.820;9.244;2023-02-15T12:47:27;29.50;;;21.97;;
7193;SDS011;3638;48.820;9.244;2023-02-15T12:50:06;27.70;;;21.93;;
7193;SDS011;3638;48.820;9.244;2023-02-15T12:52:44;29.00;;;21.53;;
7193;SDS011;3638;48.820;9.244;2023-02-15T12:55:20;29.33;;;22.57;;
7193;SDS011;3638;48.820;9.244;2023-02-15T12:58:04;27.53;;;22.20;;
7193;SDS011;3638;48.820;9.244;2023-02-15T13:00:33;28.40;;;21.43;;
7193;SDS011;3638;48.820;9.244;2023-02-15T13:03:01;28.93;;;21.43;;
7193;SDS011;3638;48.820;9.244;2023-02-15T13:05:31;35.43;;;23.30;;
7193;SDS011;3638;48.820;9.244;2023-02-15T13:08:02;29.27;;;21.67;;
7193;SDS011;3638;48.820;9.244;2023-02-15T13:10:36;28.67;;;22.27;;
7193;SDS011;3638;48.820;9.244;2023-02-15T13:13:09;30.07;;;23.07;;
7193;SDS011;3638;48.820;9.244;2023-02-15T13:15:37;27.77;;;22.07;;
7193;SDS011;3638;48.820;9.244;2023-02-15T13:18:11;30.07;;;22.57;;
7193;SDS011;3638;48.820;9.244;2023-02-15T13:20:44;29.17;;;22.07;;
7193;SDS011;3638;48.820;9.244;2023-02-15T13:23:16;30.87;;;22.60;;
7193;SDS011;3638;48.820;9.244;2023-02-15T13:25:54;29.90;;;21.47;;
7193;SDS011;3638;48.820;9.244;2023-02-15T13:28:23;28.00;;;21.80;;
7193;SDS011;3638;48.820;9.244;2023-02-15T13:30:53;29.37;;;21.47;;
7193;SDS011;3638;48.820;9.244;2023-02-15T13:33:23;27.33;;;21.97;;
7193;SDS011;3638;48.820;9.244;2023-02-15T13:35:58;28.60;;;22.63;;
7193;SDS011;3638;48.820;9.244;2023-02-15T13:38:39;29.90;;;22.40;;
7193;SDS011;3638;48.820;9.244;2023-02-15T13:41:16;28.53;;;21.83;;
7193;SDS011;3638;48.820;9.244;2023-02-15T13:43:50;29.27;;;21.77;;
7193;SDS011;3638;48.820;9.244;2023-02-15T13:46:31;27.10;;;21.67;;
7193;SDS011;3638;48.820;9.244;2023-02-15T13:49:21;26.53;;;21.37;;
7193;SDS011;3638;48.820;9.244;2023-02-15T13:52:13;32.83;;;21.20;;
7193;SDS011;3638;48.820;9.244;2023-02-15T13:57:57;29.67;;;22.40;;
7193;SDS011;3638;48.820;9.244;2023-02-15T14:00:56;26.50;;;21.03;;
7193;SDS011;3638;48.820;9.244;2023-02-15T14:03:44;25.10;;;19.60;;
7193;SDS011;3638;48.820;9.244;2023-02-15T14:06:57;24.90;;;20.47;;
7193;SDS011;3638;48.820;9.244;2023-02-15T14:10:02;23.67;;;19.10;;
7193;SDS011;3638;48.820;9.244;2023-02-15T14:12:53;27.50;;;20.67;;
7193;SDS011;3638;48.820;9.244;2023-02-15T14:15:35;26.63;;;20.27;;
7193;SDS011;3638;48.820;9.244;2023-02-15T14:18:12;28.63;;;21.00;;
7193;SDS011;3638;48.820;9.244;2023-02-15T14:20:50;25.27;;;19.23;;
7193;SDS011;3638;48.820;9.244;2023-02-15T14:23:30;24.30;;;19.93;;
7193;SDS011;3638;48.820;9.244;2023-02-15T14:26:11;24.40;;;19.40;;
7193;SDS011;3638;48.820;9.244;2023-02-15T14:28:46;25.03;;;20.03;;
7193;SDS011;3638;48.820;9.244;2023-02-15T14:31:24;30.67;;;19.73;;
7193;SDS011;3638;48.820;9.244;2023-02-15T14:33:56;26.13;;;20.40;;
7193;SDS011;3638;48.820;9.244;2023-02-15T14:36:23;24.63;;;19.20;;
7193;SDS011;3638;48.820;9.244;2023-02-15T14:38:59;23.53;;;18.97;;
7193;SDS011;3638;48.820;9.244;2023-02-15T14:41:57;23.77;;;18.50;;
7193;SDS011;3638;48.820;9.244;2023-02-15T14:44:33;24.60;;;18.17;;
7193;SDS011;3638;48.820;9.244;2023-02-15T14:47:05;22.23;;;17.93;;
7193;SDS011;3638;48.820;9.244;2023-02-15T14:49:38;23.43;;;18.77;;
7193;SDS011;3638;48.820;9.244;2023-02-15T14:52:06;23.47;;;17.80;;
7193;SDS011;3638;48.820;9.244;2023-02-15T14:58:00;25.90;;;17.57;;
7193;SDS011;3638;48.820;9.244;2023-02-15T15:00:36;21.90;;;17.50;;
7193;SDS011;3638;48.820;9.244;2023-02-15T15:03:10;25.47;;;18.90;;
7193;SDS011;3638;48.820;9.244;2023-02-15T15:05:47;28.97;;;18.10;;
7193;SDS011;3638;48.820;9.244;2023-02-15T15:08:29;23.20;;;17.83;;
7193;SDS011;3638;48.820;9.244;2023-02-15T15:14:05;25.60;;;17.57;;
7193;SDS011;3638;48.820;9.244;2023-02-15T15:16:48;25.10;;;17.93;;
7193;SDS011;3638;48.820;9.244;2023-02-15T15:22:32;25.83;;;18.63;;
7193;SDS011;3638;48.820;9.244;2023-02-15T15:25:01;22.83;;;16.83;;
7193;SDS011;3638;48.820;9.244;2023-02-15T15:27:43;23.07;;;17.73;;
7193;SDS011;3638;48.820;9.244;2023-02-15T15:33:41;24.53;;;18.30;;
7193;SDS011;3638;48.820;9.244;2023-02-15T15:49:44;23.60;;;17.53;;
7193;SDS011;3638;48.820;9.244;2023-02-15T15:52:13;22.13;;;17.60;;
7193;SDS011;3638;48.820;9.244;2023-02-15T15:54:42;23.00;;;17.43;;
7193;SDS011;3638;48.820;9.244;2023-02-15T15:57:14;23.77;;;17.90;;